Weather at Soekarno-Hatta International Airport

Public forecast

Using degrees Celsius for public forecast. Weather courtesy of forecast.io.

Current aviation weather report (METAR) for Soekarno-Hatta International Airport

2022/12/01 23:30 (retrieved 15 seconds ago)

WIII 012330Z 20004KT 5000 HZ FEW020 25/24 Q1007 NOSIG

Aviation forecast (TAF) for Soekarno-Hatta International Airport

2022/12/01 18:00 (retrieved 6 hours ago)

TAF WIII 011700Z 0118/0300 23005KT 5000 HZ SCT020 BECMG 0122/0200 8000 NSW BECMG 0202/0204 36010KT